Time;durP1;ratioP1;P1;durP2;ratioP2;P2;SDS_P1;SDS_P2;PMS_P1;PMS_P2;Temp;Humidity;BMP_temperature;BMP_pressure;BME280_temperature;BME280_humidity;BME280_pressure;Samples;Min_cycle;Max_cycle;Signal;HPM_P1;HPM_P2
2023/01/15 00:01:33;;;;;;;8.57;4.63;;;9.10;68.80;;;;;;5024855;28;20536;-77
2023/01/15 00:04:02;;;;;;;9.07;4.30;;;9.10;68.80;;;;;;5024571;28;20040;-76
2023/01/15 00:06:29;;;;;;;8.07;4.47;;;9.10;68.80;;;;;;5024154;28;20514;-77
2023/01/15 00:08:55;;;;;;;8.27;4.30;;;9.10;68.70;;;;;;5024615;28;20048;-78
2023/01/15 00:11:22;;;;;;;9.00;4.70;;;9.20;68.80;;;;;;5022311;28;20037;-78
2023/01/15 00:13:48;;;;;;;6.75;4.10;;;9.10;68.70;;;;;;5003800;28;20274;-76
2023/01/15 00:16:20;;;;;;;8.05;4.50;;;9.10;68.70;;;;;;5023290;28;20037;-77
2023/01/15 00:19:07;;;;;;;7.55;3.95;;;9.10;68.60;;;;;;5022653;28;20404;-77
2023/01/15 00:21:33;;;;;;;8.02;4.47;;;9.20;68.70;;;;;;5022899;28;20040;-77
2023/01/15 00:29:28;;;;;;;6.57;4.10;;;9.20;68.50;;;;;;4985808;28;20049;-77
2023/01/15 00:32:02;;;;;;;7.97;3.85;;;9.10;68.40;;;;;;4983538;28;20042;-78
2023/01/15 00:34:30;;;;;;;6.65;3.70;;;9.10;68.40;;;;;;4980692;28;20092;-77
2023/01/15 00:36:56;;;;;;;10.30;4.63;;;9.20;68.50;;;;;;4984936;28;20101;-78
2023/01/15 00:39:25;;;;;;;7.35;3.97;;;9.10;68.50;;;;;;4981428;28;20088;-77
2023/01/15 00:41:52;;;;;;;8.70;4.20;;;9.10;68.60;;;;;;4985830;28;20350;-77
2023/01/15 00:44:19;;;;;;;7.38;4.10;;;9.10;68.50;;;;;;4980599;28;20576;-77
2023/01/15 00:46:46;;;;;;;6.32;3.97;;;9.20;68.70;;;;;;4984036;28;20062;-77
2023/01/15 00:49:12;;;;;;;6.05;3.63;;;9.20;68.60;;;;;;4985744;28;20035;-77
2023/01/15 00:51:38;;;;;;;5.50;3.97;;;9.20;68.70;;;;;;4984449;28;20026;-77
2023/01/15 00:54:04;;;;;;;4.57;3.60;;;9.10;68.50;;;;;;4971787;28;20031;-77
2023/01/15 00:56:31;;;;;;;6.20;3.90;;;9.10;68.40;;;;;;4988896;28;20081;-77
2023/01/15 00:58:57;;;;;;;8.43;3.83;;;9.20;68.40;;;;;;4988048;28;20464;-75
2023/01/15 01:01:24;;;;;;;4.95;3.95;;;9.20;68.30;;;;;;4989030;28;20122;-75
2023/01/15 01:03:51;;;;;;;6.10;4.13;;;9.10;68.20;;;;;;4987506;28;20125;-75
2023/01/15 01:06:19;;;;;;;5.05;3.45;;;9.10;68.20;;;;;;4988268;28;20117;-77
2023/01/15 01:08:45;;;;;;;7.72;3.95;;;9.10;68.70;;;;;;4986716;28;20623;-77
2023/01/15 01:11:14;;;;;;;6.60;3.97;;;9.10;68.00;;;;;;4988028;28;20034;-77
2023/01/15 01:13:41;;;;;;;6.22;4.10;;;9.10;68.20;;;;;;4986957;28;20125;-77
2023/01/15 01:16:26;;;;;;;13.63;4.57;;;9.10;68.30;;;;;;4988166;28;20129;-77
2023/01/15 01:18:53;;;;;;;10.75;4.35;;;9.20;68.40;;;;;;4989275;28;20035;-77
2023/01/15 01:21:20;;;;;;;8.25;3.63;;;9.10;68.40;;;;;;4988050;28;20062;-77
2023/01/15 01:23:47;;;;;;;6.57;4.10;;;9.20;68.50;;;;;;4986873;28;20517;-77
2023/01/15 01:26:13;;;;;;;6.45;4.30;;;9.20;68.40;;;;;;4987133;28;20092;-77
2023/01/15 01:28:40;;;;;;;9.05;3.90;;;9.20;68.40;;;;;;4988402;28;20042;-77
2023/01/15 01:31:07;;;;;;;7.20;4.10;;;9.20;68.40;;;;;;4988009;28;20042;-76
2023/01/15 01:33:34;;;;;;;8.73;3.58;;;9.20;68.40;;;;;;4990529;28;20209;-77
2023/01/15 01:36:00;;;;;;;5.97;3.60;;;9.10;68.40;;;;;;4988661;28;20022;-77
2023/01/15 01:38:26;;;;;;;7.15;4.10;;;9.20;68.40;;;;;;4986132;28;20093;-77
2023/01/15 01:40:52;;;;;;;7.57;3.83;;;9.20;68.40;;;;;;5002738;28;20070;-77
2023/01/15 01:43:24;;;;;;;9.05;4.68;;;9.20;68.30;;;;;;4985461;28;20030;-77
2023/01/15 01:45:50;;;;;;;8.75;4.40;;;9.20;68.30;;;;;;4984577;28;20030;-77
2023/01/15 01:48:30;;;;;;;6.90;4.47;;;9.20;68.10;;;;;;5003735;28;20035;-77
2023/01/15 01:51:00;;;;;;;7.63;4.10;;;9.20;68.10;;;;;;4969167;28;20054;-77
2023/01/15 01:53:29;;;;;;;7.07;4.05;;;9.20;68.00;;;;;;4985935;28;20062;-77
2023/01/15 01:55:57;;;;;;;7.70;3.78;;;9.20;68.10;;;;;;4987960;28;20482;-77
2023/01/15 01:58:28;;;;;;;8.63;4.60;;;9.20;68.00;;;;;;4984782;28;20041;-76
2023/01/15 02:00:55;;;;;;;8.10;4.20;;;9.20;67.90;;;;;;5003014;28;20517;-77
2023/01/15 02:03:24;;;;;;;9.43;4.28;;;9.20;67.90;;;;;;4986235;28;20030;-77
2023/01/15 02:05:53;;;;;;;6.30;3.95;;;9.20;67.80;;;;;;4987335;28;20026;-77
2023/01/15 02:08:20;;;;;;;8.93;4.10;;;9.20;67.90;;;;;;5002395;28;20042;-77
2023/01/15 02:10:52;;;;;;;7.43;4.25;;;9.20;68.00;;;;;;4985296;28;20417;-76
2023/01/15 02:13:33;;;;;;;5.88;3.85;;;9.20;67.90;;;;;;4987483;28;20034;-77
2023/01/15 02:16:07;;;;;;;8.63;3.80;;;9.20;68.00;;;;;;4986126;28;20060;-75
2023/01/15 02:18:51;;;;;;;7.07;4.05;;;9.20;68.00;;;;;;4997171;28;20030;-76
2023/01/15 02:21:28;;;;;;;9.20;4.07;;;9.20;68.00;;;;;;4984543;28;20042;-74
2023/01/15 02:24:10;;;;;;;12.18;4.20;;;9.20;68.00;;;;;;4986641;28;20050;-75
2023/01/15 02:26:54;;;;;;;6.78;3.80;;;9.20;68.00;;;;;;4993433;28;20414;-75
2023/01/15 02:30:05;;;;;;;7.68;4.22;;;9.20;67.90;;;;;;4992541;28;20041;-75
2023/01/15 02:32:44;;;;;;;;;;;9.20;67.90;;;;;;5008944;28;20076;-75
2023/01/15 02:35:18;;;;;;;9.70;4.43;;;9.20;67.90;;;;;;5026272;28;19939;-76
2023/01/15 02:37:50;;;;;;;7.88;3.78;;;9.20;67.90;;;;;;4992416;28;21020;-75
2023/01/15 02:40:21;;;;;;;8.02;3.92;;;9.20;67.80;;;;;;5008470;28;20038;-76
2023/01/15 02:42:49;;;;;;;7.18;3.78;;;9.20;68.00;;;;;;5024342;28;20503;-76
2023/01/15 02:45:23;;;;;;;9.82;4.20;;;9.20;68.10;;;;;;5009004;28;20059;-76
2023/01/15 02:47:53;;;;;;;8.38;4.13;;;9.20;68.20;;;;;;5011095;28;20034;-77
2023/01/15 02:50:26;;;;;;;7.72;4.43;;;9.20;68.10;;;;;;5024805;28;20034;-76
2023/01/15 02:52:58;;;;;;;8.57;4.40;;;9.20;68.20;;;;;;5006869;28;20456;-76
2023/01/15 02:55:38;;;;;;;11.23;3.75;;;9.20;68.30;;;;;;5006328;28;20042;-76
2023/01/15 02:58:08;;;;;;;9.40;4.28;;;9.20;68.40;;;;;;5026122;28;20168;-75
2023/01/15 03:00:38;;;;;;;7.60;4.03;;;9.20;68.40;;;;;;5018244;28;20029;-76
2023/01/15 03:03:18;;;;;;;9.02;4.13;;;9.30;68.50;;;;;;5025926;28;21587;-75
2023/01/15 03:06:16;;;;;;;5.82;3.88;;;9.20;68.40;;;;;;5007794;28;20038;-75
2023/01/15 03:08:42;;;;;;;8.90;4.30;;;9.20;68.30;;;;;;5008355;28;20034;-77
2023/01/15 03:11:15;;;;;;;8.40;4.05;;;9.20;68.30;;;;;;4991006;28;20065;-77
2023/01/15 03:14:21;;;;;;;7.43;4.32;;;9.30;68.40;;;;;;5023382;28;20026;-76
2023/01/15 03:16:55;;;;;;;6.50;4.38;;;9.20;68.20;;;;;;4974279;28;20029;-76
2023/01/15 03:19:44;;;;;;;14.45;4.35;;;9.20;68.10;;;;;;5024629;28;20037;-77
2023/01/15 03:22:32;;;;;;;9.02;4.18;;;9.20;68.10;;;;;;5008403;28;20412;-77
2023/01/15 03:25:16;;;;;;;7.35;4.60;;;9.20;68.00;;;;;;5007832;28;20035;-76
2023/01/15 03:27:46;;;;;;;8.27;3.67;;;9.20;68.00;;;;;;5005966;28;20049;-76
2023/01/15 03:30:18;;;;;;;10.77;4.82;;;9.20;68.00;;;;;;4989338;28;20064;-75
2023/01/15 03:32:45;;;;;;;8.80;4.32;;;9.20;67.90;;;;;;4988874;28;20033;-74
2023/01/15 03:35:48;;;;;;;6.68;4.13;;;9.20;67.80;;;;;;5016046;28;20030;-75
2023/01/15 03:38:32;;;;;;;8.80;4.55;;;9.20;67.90;;;;;;5020643;28;20112;-74
2023/01/15 03:41:11;;;;;;;;;;;9.30;67.90;;;;;;5008259;28;20087;-75
2023/01/15 03:44:05;;;;;;;8.68;4.22;;;9.20;68.00;;;;;;5005306;28;20421;-74
2023/01/15 03:46:50;;;;;;;10.73;4.55;;;9.30;67.90;;;;;;5005519;28;20038;-74
2023/01/15 03:49:38;;;;;;;11.93;4.57;;;9.20;68.00;;;;;;5007552;28;20041;-74
2023/01/15 03:52:21;;;;;;;8.18;3.78;;;9.30;68.00;;;;;;5001778;28;20042;-73
2023/01/15 03:55:11;;;;;;;10.88;4.47;;;9.20;67.90;;;;;;5020860;28;20120;-74
2023/01/15 03:57:49;;;;;;;5.53;3.70;;;9.30;68.10;;;;;;5023267;28;20380;-74
2023/01/15 04:00:24;;;;;;;9.77;3.90;;;9.20;67.90;;;;;;5007358;28;20219;-75
2023/01/15 04:02:56;;;;;;;7.63;3.75;;;9.20;67.90;;;;;;4984711;28;20042;-75
2023/01/15 04:05:26;;;;;;;8.32;3.33;;;9.20;67.90;;;;;;5006791;28;20728;-73
2023/01/15 04:07:55;;;;;;;10.73;4.72;;;9.20;67.80;;;;;;5024870;28;20087;-74
2023/01/15 04:10:22;;;;;;;8.18;3.95;;;9.20;67.80;;;;;;5006927;28;20085;-74
2023/01/15 04:12:49;;;;;;;7.90;4.20;;;9.20;67.80;;;;;;5006868;28;20044;-74
2023/01/15 04:15:18;;;;;;;10.95;4.30;;;9.20;67.90;;;;;;5003712;28;20076;-74
2023/01/15 04:17:44;;;;;;;11.48;4.50;;;9.20;68.10;;;;;;5006993;28;20049;-73
2023/01/15 04:20:11;;;;;;;11.20;4.45;;;9.20;68.00;;;;;;5001457;28;20559;-74
2023/01/15 04:22:40;;;;;;;9.52;4.20;;;9.30;68.10;;;;;;5007675;28;20424;-74
2023/01/15 04:25:07;;;;;;;13.07;4.15;;;9.20;67.90;;;;;;5024752;28;20030;-73
2023/01/15 04:27:33;;;;;;;10.20;4.60;;;9.30;68.10;;;;;;5026139;28;20462;-74
2023/01/15 04:29:59;;;;;;;10.95;4.20;;;9.30;68.20;;;;;;5029170;28;20029;-77
2023/01/15 04:32:25;;;;;;;8.25;4.25;;;9.30;68.10;;;;;;5027901;28;20034;-75
2023/01/15 04:34:51;;;;;;;7.47;4.15;;;9.30;68.10;;;;;;5028348;28;20408;-75
2023/01/15 04:37:18;;;;;;;13.38;4.45;;;9.30;68.10;;;;;;5027931;28;20088;-75
2023/01/15 04:39:46;;;;;;;9.63;4.68;;;9.30;68.00;;;;;;5027886;28;20735;-75
2023/01/15 04:44:58;;;;;;;10.20;4.78;;;9.30;68.00;;;;;;5028534;28;20087;-74
2023/01/15 04:47:24;;;;;;;12.82;4.65;;;9.20;67.90;;;;;;5028463;28;20037;-73
2023/01/15 04:49:50;;;;;;;10.25;4.60;;;9.30;67.90;;;;;;5028134;28;20061;-74
2023/01/15 04:52:16;;;;;;;6.43;4.38;;;9.30;67.90;;;;;;5028353;28;20057;-76
2023/01/15 04:54:42;;;;;;;8.95;4.50;;;9.30;67.90;;;;;;5010282;28;20120;-75
2023/01/15 04:57:10;;;;;;;10.35;4.45;;;9.30;67.90;;;;;;5028059;28;20136;-74
2023/01/15 04:59:36;;;;;;;9.57;4.93;;;9.30;67.80;;;;;;5010887;28;20462;-75
2023/01/15 05:02:01;;;;;;;11.68;4.75;;;9.30;67.70;;;;;;5028013;28;20033;-75
2023/01/15 05:04:27;;;;;;;10.60;4.70;;;9.30;67.80;;;;;;4992827;28;20025;-75
2023/01/15 05:06:53;;;;;;;11.32;4.47;;;9.30;67.80;;;;;;5027334;28;20063;-75
2023/01/15 05:09:19;;;;;;;14.20;4.47;;;9.30;67.90;;;;;;5011812;28;20030;-76
2023/01/15 05:11:45;;;;;;;11.32;4.85;;;9.30;67.90;;;;;;5009775;28;20136;-75
2023/01/15 05:14:11;;;;;;;9.77;4.60;;;9.30;67.90;;;;;;5009430;28;20076;-75
2023/01/15 05:16:37;;;;;;;10.63;4.65;;;9.30;67.90;;;;;;5027326;28;20588;-76
2023/01/15 05:19:06;;;;;;;16.30;5.03;;;9.30;67.90;;;;;;5027767;28;20036;-75
2023/01/15 05:21:36;;;;;;;9.30;4.28;;;9.30;67.90;;;;;;5009633;28;20037;-74
2023/01/15 05:24:04;;;;;;;11.55;5.03;;;9.30;67.80;;;;;;5027814;28;20030;-75
2023/01/15 05:26:31;;;;;;;9.95;4.43;;;9.30;67.80;;;;;;5027314;28;20033;-74
2023/01/15 05:28:59;;;;;;;11.80;4.72;;;9.30;67.90;;;;;;5009673;28;20586;-75
2023/01/15 05:31:26;;;;;;;11.00;4.45;;;9.30;67.80;;;;;;5027391;28;20127;-75
2023/01/15 05:33:54;;;;;;;11.70;5.05;;;9.30;67.80;;;;;;5026821;28;20038;-74
2023/01/15 05:36:23;;;;;;;10.93;4.80;;;9.30;67.80;;;;;;5028068;28;20440;-75
2023/01/15 05:38:49;;;;;;;10.57;4.78;;;9.30;67.70;;;;;;5009075;28;20049;-75
2023/01/15 05:44:12;;;;;;;13.20;4.93;;;9.30;67.90;;;;;;5027371;28;20030;-75
2023/01/15 05:46:39;;;;;;;11.70;5.18;;;9.30;67.90;;;;;;5026646;28;20091;-74
2023/01/15 05:49:08;;;;;;;8.00;4.32;;;9.30;68.10;;;;;;5007793;28;20091;-73
2023/01/15 05:51:35;;;;;;;13.30;4.70;;;9.30;68.10;;;;;;5009445;28;20033;-74
2023/01/15 05:54:01;;;;;;;10.32;5.20;;;9.30;68.20;;;;;;5027954;28;20056;-73
2023/01/15 05:56:27;;;;;;;9.98;5.10;;;9.30;68.30;;;;;;5027227;28;20121;-75
2023/01/15 05:58:53;;;;;;;13.60;4.88;;;9.30;68.40;;;;;;5026134;28;20203;-75
2023/01/15 06:01:20;;;;;;;9.88;4.75;;;9.30;68.30;;;;;;5027143;28;20097;-75
2023/01/15 06:03:47;;;;;;;10.02;5.13;;;9.30;68.40;;;;;;5027248;28;20037;-74
2023/01/15 06:06:16;;;;;;;9.73;5.50;;;9.40;68.40;;;;;;5027692;28;20547;-74
2023/01/15 06:08:43;;;;;;;13.27;4.70;;;9.30;68.20;;;;;;5008448;28;20033;-74
2023/01/15 06:11:10;;;;;;;12.32;4.80;;;9.40;68.40;;;;;;5009198;28;20128;-75
2023/01/15 06:13:38;;;;;;;9.23;4.75;;;9.30;68.30;;;;;;5026447;28;20033;-76
2023/01/15 06:16:05;;;;;;;11.60;5.18;;;9.40;68.30;;;;;;5008050;28;20720;-74
2023/01/15 06:18:32;;;;;;;14.05;5.35;;;9.40;68.30;;;;;;5026023;28;20079;-74
2023/01/15 06:21:06;;;;;;;14.52;5.75;;;9.40;68.30;;;;;;5027763;28;20044;-74
2023/01/15 06:23:35;;;;;;;10.75;5.03;;;9.40;68.20;;;;;;5025889;28;20040;-76
2023/01/15 06:26:03;;;;;;;10.13;5.03;;;9.40;68.10;;;;;;5026266;28;20092;-75
2023/01/15 06:28:29;;;;;;;11.93;4.93;;;9.40;68.20;;;;;;5026196;28;20547;-76
2023/01/15 06:30:55;;;;;;;11.93;4.80;;;9.40;68.10;;;;;;5007165;28;20045;-74
2023/01/15 06:33:21;;;;;;;15.63;5.18;;;9.40;68.20;;;;;;5025524;28;20034;-73
2023/01/15 06:35:47;;;;;;;13.38;5.05;;;9.40;68.30;;;;;;5009255;28;20075;-74
2023/01/15 06:38:13;;;;;;;10.43;4.75;;;9.40;68.20;;;;;;5025378;28;20560;-76
2023/01/15 06:40:39;;;;;;;10.52;4.85;;;9.40;68.30;;;;;;5008833;28;20503;-76
2023/01/15 06:48:52;;;;;;;11.00;5.05;;;9.40;68.40;;;;;;4991654;28;20033;-76
2023/01/15 06:51:20;;;;;;;13.45;4.80;;;9.40;68.40;;;;;;5019402;28;20037;-76
2023/01/15 06:53:46;;;;;;;10.77;4.55;;;9.40;68.40;;;;;;5009991;28;20042;-77
2023/01/15 06:56:14;;;;;;;15.57;5.75;;;9.40;68.90;;;;;;5008687;28;20060;-77
2023/01/15 06:58:41;;;;;;;13.60;5.47;;;9.40;68.40;;;;;;5025424;28;20595;-77
2023/01/15 07:01:13;;;;;;;14.07;5.43;;;9.40;68.40;;;;;;5027695;28;20029;-76
2023/01/15 07:03:39;;;;;;;10.35;5.00;;;9.40;68.30;;;;;;5025094;28;20460;-77
2023/01/15 07:06:12;;;;;;;12.25;5.07;;;9.40;68.20;;;;;;5026568;28;20068;-77
2023/01/15 07:08:38;;;;;;;13.80;5.78;;;9.40;68.20;;;;;;5023643;28;20512;-76
2023/01/15 07:11:07;;;;;;;14.93;5.63;;;9.40;68.40;;;;;;5007201;28;20194;-75
2023/01/15 07:13:33;;;;;;;17.50;5.75;;;9.40;68.40;;;;;;5024173;28;20095;-76
2023/01/15 07:16:01;;;;;;;11.32;5.32;;;9.40;68.30;;;;;;5025960;28;20104;-76
2023/01/15 07:18:28;;;;;;;15.65;5.53;;;9.40;68.30;;;;;;5025146;28;20037;-76
2023/01/15 07:20:57;;;;;;;15.40;5.63;;;9.40;68.40;;;;;;5025964;28;20088;-75
2023/01/15 07:23:24;;;;;;;13.82;6.57;;;9.40;68.50;;;;;;5024907;28;20033;-75
2023/01/15 07:25:54;;;;;;;12.50;5.70;;;9.50;68.70;;;;;;5007827;28;20038;-76
2023/01/15 07:28:21;;;;;;;14.15;5.57;;;9.40;68.90;;;;;;5024599;28;20045;-74
2023/01/15 07:30:47;;;;;;;13.48;5.75;;;9.50;68.90;;;;;;5025294;28;20049;-76
2023/01/15 07:33:13;;;;;;;14.82;5.90;;;9.50;68.90;;;;;;5005547;28;20058;-74
2023/01/15 07:35:40;;;;;;;17.00;6.05;;;9.50;69.00;;;;;;5025314;28;20048;-77
2023/01/15 07:38:06;;;;;;;10.23;6.03;;;9.50;68.90;;;;;;5023390;28;20040;-77
2023/01/15 07:40:32;;;;;;;11.07;6.05;;;9.50;68.90;;;;;;5023900;28;20025;-75
2023/01/15 07:51:12;;;;;;;12.05;4.88;;;9.50;68.80;;;;;;5007879;28;20037;-76
2023/01/15 07:53:38;;;;;;;13.38;6.10;;;9.50;68.70;;;;;;5007355;28;20524;-77
2023/01/15 07:56:04;;;;;;;13.60;5.72;;;9.50;68.70;;;;;;5024672;28;20053;-73
2023/01/15 07:58:30;;;;;;;10.45;5.32;;;9.50;68.80;;;;;;5023330;28;20120;-74
2023/01/15 08:00:56;;;;;;;10.80;5.78;;;9.50;68.60;;;;;;5024567;28;20599;-74
2023/01/15 08:03:22;;;;;;;9.90;5.43;;;9.50;68.60;;;;;;5028398;28;20039;-73
2023/01/15 08:05:48;;;;;;;14.43;6.25;;;9.50;68.40;;;;;;5028689;28;20021;-72
2023/01/15 08:08:15;;;;;;;17.42;6.47;;;9.50;68.40;;;;;;5010500;28;20033;-72
2023/01/15 08:16:10;;;;;;;13.55;5.68;;;9.60;68.70;;;;;;5029152;28;20044;-73
2023/01/15 08:18:36;;;;;;;12.90;5.85;;;9.60;68.90;;;;;;5029230;28;20040;-73
2023/01/15 08:21:02;;;;;;;16.42;6.53;;;9.60;69.10;;;;;;5028784;28;20025;-73
2023/01/15 08:23:28;;;;;;;15.30;6.75;;;9.60;69.10;;;;;;5029044;28;20077;-73
2023/01/15 08:25:58;;;;;;;13.68;6.70;;;9.60;69.20;;;;;;5010926;28;20134;-74
2023/01/15 08:28:24;;;;;;;9.43;6.10;;;9.60;69.20;;;;;;5009982;28;20699;-73
2023/01/15 08:30:50;;;;;;;12.43;5.75;;;9.60;69.30;;;;;;5026936;28;20034;-73
2023/01/15 08:33:16;;;;;;;12.60;6.15;;;9.60;69.20;;;;;;5010582;28;20033;-73
2023/01/15 08:35:42;;;;;;;14.18;6.40;;;9.60;69.10;;;;;;5027524;28;20120;-72
2023/01/15 08:38:09;;;;;;;9.63;5.47;;;9.70;69.20;;;;;;5028235;28;20515;-75
2023/01/15 08:40:57;;;;;;;13.77;6.32;;;9.70;69.10;;;;;;5028116;28;20041;-74
2023/01/15 08:43:21;;;;;;;10.07;6.45;;;9.70;69.00;;;;;;5028216;28;21043;-73
2023/01/15 08:45:47;;;;;;;12.50;6.80;;;9.70;68.90;;;;;;5028407;28;20033;-73
2023/01/15 08:48:13;;;;;;;14.63;6.30;;;9.70;68.90;;;;;;4993622;28;20033;-76
2023/01/15 08:50:39;;;;;;;8.25;5.25;;;9.70;68.90;;;;;;5025689;28;20029;-77
2023/01/15 08:53:05;;;;;;;16.55;6.18;;;9.70;68.70;;;;;;5022930;28;20504;-75
2023/01/15 08:55:31;;;;;;;12.40;5.82;;;9.70;68.70;;;;;;5006027;28;20119;-77
2023/01/15 08:57:57;;;;;;;16.65;6.50;;;9.70;68.70;;;;;;5006081;28;20061;-77
2023/01/15 09:00:24;;;;;;;17.10;6.25;;;9.70;68.70;;;;;;5007216;28;20029;-78
2023/01/15 09:02:50;;;;;;;12.25;6.20;;;9.70;68.70;;;;;;5027793;28;20571;-79
2023/01/15 09:05:16;;;;;;;13.48;6.28;;;9.70;68.90;;;;;;5028251;28;20127;-80
2023/01/15 09:07:42;;;;;;;13.77;6.30;;;9.70;68.90;;;;;;5005891;28;20045;-78
2023/01/15 09:10:08;;;;;;;14.90;6.20;;;9.70;68.80;;;;;;5028110;28;20075;-77
2023/01/15 09:12:34;;;;;;;10.18;5.07;;;9.70;68.70;;;;;;5026642;28;20389;-76
2023/01/15 09:15:00;;;;;;;11.43;5.53;;;9.70;69.30;;;;;;5020779;28;20040;-76
2023/01/15 09:17:27;;;;;;;17.10;6.28;;;9.70;68.60;;;;;;5024416;28;20037;-75
2023/01/15 09:19:53;;;;;;;10.93;6.15;;;9.80;68.50;;;;;;5006321;28;20492;-77
2023/01/15 09:22:19;;;;;;;11.38;5.30;;;9.70;68.40;;;;;;5005460;28;20037;-77
2023/01/15 09:24:46;;;;;;;8.20;5.50;;;9.70;68.20;;;;;;5006644;28;20133;-76
2023/01/15 09:27:12;;;;;;;9.50;5.57;;;9.70;68.20;;;;;;5009210;28;20419;-77
2023/01/15 09:29:38;;;;;;;14.85;6.45;;;9.70;68.10;;;;;;5006830;28;20034;-77
2023/01/15 09:32:04;;;;;;;12.05;5.68;;;9.80;68.10;;;;;;4991452;28;20372;-78
2023/01/15 09:34:30;;;;;;;11.32;5.68;;;9.80;68.10;;;;;;5021846;28;20048;-76
2023/01/15 09:36:56;;;;;;;14.98;6.25;;;9.80;68.20;;;;;;5025024;28;20037;-76
2023/01/15 09:39:22;;;;;;;13.27;6.32;;;9.80;68.20;;;;;;5020349;28;20033;-75
2023/01/15 09:42:18;;;;;;;18.00;5.78;;;9.80;68.20;;;;;;5026123;28;20033;-78
2023/01/15 09:44:54;;;;;;;10.82;6.13;;;9.80;68.20;;;;;;5020958;28;20455;-78
2023/01/15 09:47:33;;;;;;;13.38;5.60;;;9.80;68.30;;;;;;5010156;28;20034;-76
2023/01/15 09:50:36;;;;;;;10.45;5.78;;;9.80;68.30;;;;;;5026329;28;20410;-74
2023/01/15 09:53:28;;;;;;;11.25;4.80;;;9.80;68.20;;;;;;5025525;28;20049;-75
2023/01/15 09:55:54;;;;;;;13.75;6.10;;;9.80;68.10;;;;;;4973274;28;20041;-76
2023/01/15 09:58:31;;;;;;;12.63;5.20;;;9.80;67.90;;;;;;5006314;28;20536;-77
2023/01/15 10:00:57;;;;;;;12.00;5.57;;;9.80;67.90;;;;;;5027138;28;20033;-77
2023/01/15 10:03:41;;;;;;;10.43;5.28;;;9.80;67.80;;;;;;5025047;28;20081;-77
2023/01/15 10:06:27;;;;;;;11.10;5.20;;;9.90;67.90;;;;;;5026445;28;20034;-77
2023/01/15 10:09:05;;;;;;;10.65;5.93;;;9.80;67.80;;;;;;5026313;28;20046;-77
2023/01/15 10:15:07;;;;;;;10.43;4.30;;;9.90;67.80;;;;;;5026076;28;20136;-77
2023/01/15 10:17:47;;;;;;;11.43;5.05;;;9.90;67.70;;;;;;4981445;28;20046;-76
2023/01/15 10:20:21;;;;;;;9.98;4.80;;;9.90;67.70;;;;;;4981785;28;20034;-78
2023/01/15 10:23:27;;;;;;;11.02;4.85;;;9.90;67.90;;;;;;4980689;28;20535;-76
2023/01/15 10:26:16;;;;;;;10.30;4.70;;;9.90;68.00;;;;;;4980469;28;20058;-76
2023/01/15 10:29:00;;;;;;;15.55;5.07;;;9.90;68.10;;;;;;4981811;28;20074;-76
2023/01/15 10:31:47;;;;;;;10.68;4.50;;;9.90;71.50;;;;;;4984176;28;20034;-78
2023/01/15 10:34:16;;;;;;;13.32;5.35;;;10.00;70.80;;;;;;4982093;28;20125;-81
2023/01/15 10:36:50;;;;;;;18.67;5.25;;;10.00;70.00;;;;;;4968485;28;20048;-79
2023/01/15 10:39:23;;;;;;;10.23;5.10;;;10.00;68.90;;;;;;4980528;28;20544;-79
2023/01/15 10:42:10;;;;;;;13.45;6.07;;;9.90;68.10;;;;;;4982258;28;20038;-79
2023/01/15 10:44:55;;;;;;;9.93;4.88;;;9.90;67.50;;;;;;4980081;28;20108;-77
2023/01/15 10:47:35;;;;;;;11.05;4.90;;;9.90;68.40;;;;;;4948419;28;20445;-76
2023/01/15 10:50:19;;;;;;;9.02;4.60;;;9.90;68.60;;;;;;4953008;28;20572;-75
2023/01/15 10:52:51;;;;;;;10.88;5.07;;;9.90;67.50;;;;;;4978394;28;20042;-77
2023/01/15 10:55:32;;;;;;;13.18;5.30;;;9.90;67.10;;;;;;5001560;28;20095;-80
2023/01/15 10:58:28;;;;;;;9.10;4.88;;;9.90;67.00;;;;;;5002341;28;20040;-79
2023/01/15 11:01:02;;;;;;;15.05;5.20;;;9.80;66.50;;;;;;5022195;28;20037;-81
2023/01/15 11:03:36;;;;;;;13.40;5.55;;;9.80;66.00;;;;;;5022787;28;20127;-81
2023/01/15 11:06:04;;;;;;;11.25;5.18;;;9.80;65.70;;;;;;5006596;28;20116;-78
2023/01/15 11:08:31;;;;;;;12.70;5.22;;;9.80;65.60;;;;;;5023614;28;20393;-82
2023/01/15 11:19:35;;;;;;;9.00;5.32;;;9.70;66.10;;;;;;5021857;28;20045;-81
2023/01/15 11:20:34;;;;;;;12.10;5.28;;;9.60;65.00;;;;;;5007887;28;20095;-77
2023/01/15 11:23:14;;;;;;;11.88;5.25;;;9.60;65.00;;;;;;5006022;28;20082;-81
2023/01/15 11:25:49;;;;;;;9.57;4.70;;;9.60;65.10;;;;;;5023056;28;20052;-80
2023/01/15 11:28:16;;;;;;;10.23;5.05;;;9.60;65.10;;;;;;5024896;28;20049;-77
2023/01/15 11:30:44;;;;;;;7.63;3.72;;;9.60;65.30;;;;;;5021080;28;20045;-77
2023/01/15 11:33:26;;;;;;;15.07;4.13;;;9.90;78.70;;;;;;5023261;28;20364;-81
2023/01/15 11:35:57;;;;;;;11.02;3.72;;;10.30;78.10;;;;;;5002834;28;20562;-79
2023/01/15 11:38:45;;;;;;;8.20;4.38;;;10.70;77.30;;;;;;5026463;28;20183;-80
2023/01/15 11:52:51;;;;;;;12.90;4.20;;;11.30;68.10;;;;;;5006192;28;20046;-76
2023/01/15 11:55:20;;;;;;;12.05;4.78;;;11.20;66.80;;;;;;5006824;28;20550;-75
2023/01/15 11:57:48;;;;;;;8.80;3.10;;;10.30;83.40;;;;;;4989672;28;20034;-74
2023/01/15 12:00:28;;;;;;;8.23;3.42;;;11.30;70.80;;;;;;5007856;28;20124;-79
2023/01/15 12:03:00;;;;;;;10.10;4.18;;;11.30;70.40;;;;;;5007176;28;20053;-78
2023/01/15 12:05:33;;;;;;;8.25;3.80;;;11.40;69.00;;;;;;5005635;28;20057;-78
2023/01/15 12:08:02;;;;;;;5.72;3.63;;;11.30;67.30;;;;;;5004555;28;20034;-76
2023/01/15 12:11:02;;;;;;;10.68;3.70;;;11.30;66.50;;;;;;4988864;28;20516;-77
2023/01/15 12:14:15;;;;;;;9.82;4.07;;;11.20;65.10;;;;;;5006800;28;20033;-80
2023/01/15 12:17:11;;;;;;;12.02;4.50;;;11.10;64.40;;;;;;4971548;28;20359;-79
2023/01/15 12:20:01;;;;;;;9.93;4.78;;;11.10;63.70;;;;;;4987363;28;20058;-81
2023/01/15 12:22:51;;;;;;;12.25;4.70;;;11.00;63.40;;;;;;4981479;28;20205;-83
2023/01/15 12:25:43;;;;;;;15.93;4.55;;;10.90;63.20;;;;;;4964450;28;20045;-75
2023/01/15 12:28:16;;;;;;;9.30;4.68;;;10.80;63.10;;;;;;4954516;28;20049;-78
2023/01/15 12:31:03;;;;;;;7.95;4.13;;;10.80;63.40;;;;;;4978550;28;20474;-77
2023/01/15 12:33:51;;;;;;;10.63;4.07;;;10.70;70.50;;;;;;4980948;28;20042;-77
2023/01/15 12:36:31;;;;;;;15.43;3.80;;;10.70;69.00;;;;;;4978190;28;20386;-78
2023/01/15 12:39:13;;;;;;;13.80;5.10;;;10.80;69.10;;;;;;4979908;28;20078;-80
2023/01/15 12:45:00;;;;;;;16.15;5.22;;;10.80;67.00;;;;;;4962357;28;20062;-77
2023/01/15 12:47:51;;;;;;;9.82;4.20;;;10.70;65.90;;;;;;4973989;28;20035;-78
2023/01/15 12:50:43;;;;;;;12.05;4.97;;;10.60;65.40;;;;;;4970855;28;20121;-77
2023/01/15 12:53:21;;;;;;;10.80;4.80;;;10.60;65.30;;;;;;5009256;28;20606;-80
2023/01/15 12:55:59;;;;;;;10.68;4.70;;;10.50;65.00;;;;;;5025349;28;20033;-78
2023/01/15 12:58:45;;;;;;;10.15;3.90;;;10.50;65.00;;;;;;5027274;28;20574;-78
2023/01/15 13:01:33;;;;;;;12.38;4.40;;;10.40;64.80;;;;;;5023803;28;20048;-84
2023/01/15 13:04:21;;;;;;;9.98;4.00;;;10.40;64.80;;;;;;4978327;28;20415;-85
2023/01/15 13:07:03;;;;;;;7.82;4.35;;;10.30;64.80;;;;;;5027551;28;20037;-83
2023/01/15 13:09:42;;;;;;;11.48;4.63;;;10.30;64.90;;;;;;5028503;28;20029;-80
2023/01/15 13:12:13;;;;;;;12.65;5.18;;;10.30;65.00;;;;;;4974877;28;20128;-81
2023/01/15 13:14:40;;;;;;;9.35;4.18;;;10.30;64.80;;;;;;5011510;28;20034;-78
2023/01/15 13:17:32;;;;;;;12.00;4.47;;;10.20;64.70;;;;;;5026939;28;20064;-79
2023/01/15 13:20:12;;;;;;;12.63;4.90;;;10.20;64.80;;;;;;5027859;28;20165;-79
2023/01/15 13:22:53;;;;;;;6.93;3.80;;;10.20;65.40;;;;;;5025570;28;20034;-82
2023/01/15 13:25:49;;;;;;;9.60;4.00;;;10.10;64.60;;;;;;4995308;28;20034;-86
2023/01/15 13:28:24;;;;;;;11.20;5.03;;;10.10;64.60;;;;;;5021967;28;20057;-82
2023/01/15 13:30:55;;;;;;;11.15;4.55;;;10.00;64.50;;;;;;5023592;28;20049;-82
2023/01/15 13:33:31;;;;;;;9.80;4.20;;;10.00;64.50;;;;;;5021942;28;20037;-81
2023/01/15 13:36:12;;;;;;;12.93;4.60;;;10.00;64.40;;;;;;5026765;28;20128;-80
2023/01/15 13:38:43;;;;;;;9.13;4.15;;;10.00;64.40;;;;;;5029842;28;20141;-81
2023/01/15 13:41:09;;;;;;;12.05;5.03;;;9.90;64.30;;;;;;5030663;28;20029;-79
2023/01/15 13:43:39;;;;;;;12.43;4.60;;;9.90;64.10;;;;;;5025947;28;20034;-78
2023/01/15 13:46:10;;;;;;;10.18;4.20;;;9.90;64.20;;;;;;5004969;28;20358;-79
2023/01/15 13:48:42;;;;;;;8.25;4.40;;;9.90;64.00;;;;;;5006999;28;20033;-78
2023/01/15 13:51:36;;;;;;;9.25;4.43;;;9.80;64.10;;;;;;4988674;28;20443;-80
2023/01/15 13:54:04;;;;;;;6.75;4.07;;;9.80;64.20;;;;;;5025319;28;20048;-76
2023/01/15 13:56:32;;;;;;;10.07;3.78;;;9.80;66.20;;;;;;5026400;28;20057;-85
2023/01/15 13:59:04;;;;;;;8.18;4.13;;;9.80;66.80;;;;;;5021890;28;20072;-80
2023/01/15 14:01:30;;;;;;;7.47;3.35;;;9.80;66.90;;;;;;5007401;28;20080;-79
2023/01/15 14:04:01;;;;;;;7.50;4.13;;;9.80;66.40;;;;;;5007458;28;20523;-82
2023/01/15 14:06:43;;;;;;;8.13;4.45;;;9.80;65.80;;;;;;5025442;28;20036;-82
2023/01/15 14:09:30;;;;;;;8.07;4.32;;;9.80;65.20;;;;;;5021469;28;20068;-80
2023/01/15 14:12:05;;;;;;;9.70;4.15;;;9.80;64.70;;;;;;5008025;28;20397;-80
2023/01/15 14:14:43;;;;;;;7.38;4.25;;;9.80;64.40;;;;;;4999500;28;20040;-81